createdAt,value
2023-03-20T00:02:23.570Z,24.83
2023-03-20T00:04:51.282Z,24.45
2023-03-20T00:07:18.595Z,23.10
2023-03-20T00:09:46.185Z,25.08
2023-03-20T00:12:22.312Z,24.33
2023-03-20T00:14:49.509Z,24.02
2023-03-20T00:17:21.055Z,24.65
2023-03-20T00:19:49.039Z,27.15
2023-03-20T00:22:16.571Z,25.88
2023-03-20T00:24:43.800Z,26.85
2023-03-20T00:27:17.866Z,26.23
2023-03-20T00:29:45.040Z,24.85
2023-03-20T00:32:13.760Z,25.70
2023-03-20T00:34:41.030Z,25.58
2023-03-20T00:37:11.743Z,26.83
2023-03-20T00:39:39.162Z,25.73
2023-03-20T00:42:07.810Z,25.23
2023-03-20T00:44:41.794Z,24.83
2023-03-20T00:47:21.852Z,22.27
2023-03-20T00:49:51.480Z,24.73
2023-03-20T00:52:20.320Z,21.67
2023-03-20T00:54:47.890Z,24.30
2023-03-20T00:57:32.250Z,22.38
2023-03-20T01:00:21.481Z,22.65
2023-03-20T01:02:48.675Z,22.35
2023-03-20T01:05:16.096Z,21.52
2023-03-20T01:07:43.264Z,22.92
2023-03-20T01:10:12.770Z,21.50
2023-03-20T01:12:43.401Z,20.88
2023-03-20T01:15:24.749Z,20.23
2023-03-20T01:17:52.976Z,20.02
2023-03-20T01:20:28.489Z,21.42
2023-03-20T01:22:55.643Z,22.35
2023-03-20T01:25:23.408Z,21.90
2023-03-20T01:27:54.258Z,21.15
2023-03-20T01:30:26.173Z,19.92
2023-03-20T01:32:54.424Z,21.23
2023-03-20T01:35:27.747Z,21.20
2023-03-20T01:37:56.344Z,20.73
2023-03-20T01:40:51.092Z,21.08
2023-03-20T01:43:22.211Z,20.42
2023-03-20T01:46:21.447Z,20.48
2023-03-20T01:48:52.108Z,20.92
2023-03-20T01:51:26.124Z,19.27
2023-03-20T01:54:40.863Z,20.42
2023-03-20T01:57:37.696Z,20.50
2023-03-20T02:00:12.070Z,19.70
2023-03-20T02:02:41.129Z,20.25
2023-03-20T02:05:13.221Z,19.10
2023-03-20T02:07:41.033Z,19.05
2023-03-20T02:10:15.806Z,20.13
2023-03-20T02:12:44.339Z,20.30
2023-03-20T02:15:14.235Z,20.02
2023-03-20T02:17:42.730Z,21.15
2023-03-20T02:20:33.913Z,21.10
2023-03-20T02:23:21.423Z,19.52
2023-03-20T02:26:11.118Z,21.52
2023-03-20T02:29:06.025Z,22.38
2023-03-20T02:32:13.902Z,21.92
2023-03-20T02:35:19.813Z,21.73
2023-03-20T02:38:10.068Z,21.02
2023-03-20T02:41:25.117Z,20.40
2023-03-20T02:44:22.465Z,20.75
2023-03-20T02:47:18.873Z,19.67
2023-03-20T02:50:14.197Z,21.20
2023-03-20T02:53:45.905Z,21.88
2023-03-20T02:56:17.488Z,21.20
2023-03-20T02:59:02.155Z,21.17
2023-03-20T03:01:41.539Z,20.23
2023-03-20T03:04:33.493Z,22.35
2023-03-20T03:07:05.695Z,21.52
2023-03-20T03:09:53.993Z,22.10
2023-03-20T03:12:28.587Z,24.58
2023-03-20T03:15:07.885Z,25.98
2023-03-20T03:17:37.996Z,24.90
2023-03-20T03:20:25.912Z,25.05
2023-03-20T03:22:53.007Z,24.60
2023-03-20T03:25:26.598Z,24.08
2023-03-20T03:28:23.386Z,23.58
2023-03-20T03:30:53.639Z,23.90
2023-03-20T03:33:32.447Z,24.00
2023-03-20T03:36:43.031Z,24.08
2023-03-20T03:39:36.663Z,24.50
2023-03-20T03:42:31.588Z,24.73
2023-03-20T03:45:38.046Z,22.77
2023-03-20T03:48:20.693Z,23.73
2023-03-20T03:50:54.615Z,25.23
2023-03-20T03:53:30.473Z,21.95
2023-03-20T03:56:04.451Z,22.98
2023-03-20T03:58:35.937Z,21.83
2023-03-20T04:01:05.306Z,22.60
2023-03-20T04:03:39.274Z,22.73
2023-03-20T04:06:10.101Z,21.65
2023-03-20T04:08:37.247Z,21.15
2023-03-20T04:11:04.525Z,22.97
2023-03-20T04:13:31.687Z,22.00
2023-03-20T04:15:58.824Z,22.50
2023-03-20T04:18:26.037Z,20.58
2023-03-20T04:20:53.614Z,21.70
2023-03-20T04:23:20.730Z,20.27
2023-03-20T04:25:47.846Z,21.08
2023-03-20T04:28:16.647Z,20.17
2023-03-20T04:30:48.216Z,20.02
2023-03-20T04:33:15.456Z,21.30
2023-03-20T04:35:42.581Z,21.30
2023-03-20T04:38:09.700Z,22.52
2023-03-20T04:40:36.994Z,21.95
2023-03-20T04:43:04.654Z,22.75
2023-03-20T04:45:31.858Z,22.70
2023-03-20T04:47:58.939Z,22.13
2023-03-20T04:50:26.096Z,21.95
2023-03-20T04:52:53.213Z,22.73
2023-03-20T04:55:22.492Z,21.38
2023-03-20T04:57:50.251Z,21.75
2023-03-20T05:00:18.480Z,23.95
2023-03-20T05:02:46.330Z,24.33
2023-03-20T05:05:13.511Z,24.27
2023-03-20T05:07:40.715Z,24.02
2023-03-20T05:10:08.544Z,21.42
2023-03-20T05:12:36.375Z,23.60
2023-03-20T05:15:03.686Z,22.02
2023-03-20T05:17:30.797Z,22.88
2023-03-20T05:19:58.005Z,21.88
2023-03-20T05:22:25.415Z,22.40
2023-03-20T05:24:52.515Z,22.00
2023-03-20T05:27:19.649Z,22.65
2023-03-20T05:29:46.812Z,22.48
2023-03-20T05:32:13.902Z,23.88
2023-03-20T05:34:41.058Z,23.67
2023-03-20T05:37:08.237Z,24.52
2023-03-20T05:39:35.547Z,24.15
2023-03-20T05:42:02.697Z,24.10
2023-03-20T05:44:29.823Z,25.45
2023-03-20T05:46:58.055Z,24.48
2023-03-20T05:49:25.546Z,25.83
2023-03-20T05:51:52.629Z,27.40
2023-03-20T05:54:19.880Z,25.65
2023-03-20T05:56:49.813Z,24.70
2023-03-20T05:59:17.008Z,25.52
2023-03-20T06:01:44.192Z,26.20
2023-03-20T06:04:11.359Z,26.08
2023-03-20T06:06:38.486Z,25.92
2023-03-20T06:09:05.857Z,26.13
2023-03-20T06:11:35.490Z,26.98
2023-03-20T06:14:04.186Z,26.13
2023-03-20T06:16:31.457Z,26.92
2023-03-20T06:18:59.484Z,26.95
2023-03-20T06:21:26.583Z,25.35
2023-03-20T06:23:54.803Z,26.67
2023-03-20T06:26:22.112Z,25.85
2023-03-20T06:28:49.261Z,26.50
2023-03-20T06:31:17.072Z,28.05
2023-03-20T06:33:45.266Z,26.77
2023-03-20T06:36:12.458Z,26.67
2023-03-20T06:38:39.567Z,26.40
2023-03-20T06:41:07.044Z,26.60
2023-03-20T06:43:34.174Z,26.45
2023-03-20T06:46:01.393Z,23.23
2023-03-20T06:48:28.558Z,25.48
2023-03-20T06:50:55.706Z,26.50
2023-03-20T06:53:23.006Z,27.10
2023-03-20T06:55:51.691Z,27.95
2023-03-20T06:58:19.122Z,26.83
2023-03-20T07:00:46.760Z,27.27
2023-03-20T07:03:13.937Z,27.42
2023-03-20T07:05:43.177Z,25.55
2023-03-20T07:08:10.392Z,25.63
2023-03-20T07:10:38.290Z,26.42
2023-03-20T07:13:05.398Z,26.13
2023-03-20T07:15:32.653Z,24.42
2023-03-20T07:17:59.796Z,25.42
2023-03-20T07:20:27.388Z,24.00
2023-03-20T07:22:55.622Z,23.45
2023-03-20T07:25:35.491Z,27.52
2023-03-20T07:28:09.013Z,22.00
2023-03-20T07:30:36.352Z,22.45
2023-03-20T07:33:03.781Z,21.05
2023-03-20T07:35:31.530Z,20.92
2023-03-20T07:37:58.654Z,20.77
2023-03-20T07:40:26.123Z,19.92
2023-03-20T07:42:53.309Z,19.88
2023-03-20T07:45:20.456Z,19.33
2023-03-20T07:47:48.677Z,20.95
2023-03-20T07:50:16.778Z,18.65
2023-03-20T07:52:51.424Z,19.83
2023-03-20T07:55:18.799Z,17.42
2023-03-20T07:57:47.752Z,17.10
2023-03-20T08:00:16.571Z,16.58
2023-03-20T08:02:43.874Z,15.90
2023-03-20T08:05:11.312Z,15.05
2023-03-20T08:07:38.529Z,14.13
2023-03-20T08:10:06.462Z,14.45
2023-03-20T08:12:33.557Z,14.98
2023-03-20T08:15:00.722Z,13.55
2023-03-20T08:17:28.077Z,14.15
2023-03-20T08:19:55.798Z,12.25
2023-03-20T08:22:23.016Z,11.52
2023-03-20T08:24:50.211Z,10.65
2023-03-20T08:27:17.557Z,11.13
2023-03-20T08:29:44.666Z,10.15
2023-03-20T08:32:12.008Z,10.80
2023-03-20T08:34:39.156Z,10.18
2023-03-20T08:37:07.989Z,9.18
2023-03-20T08:39:35.905Z,9.10
2023-03-20T08:42:03.079Z,10.43
2023-03-20T08:44:30.422Z,8.20
2023-03-20T08:46:57.777Z,8.10
2023-03-20T08:49:26.436Z,8.13
2023-03-20T08:51:53.587Z,7.75
2023-03-20T08:54:20.699Z,6.68
2023-03-20T08:56:47.864Z,7.30
2023-03-20T08:59:14.960Z,5.78
2023-03-20T09:01:49.696Z,5.18
2023-03-20T09:04:17.722Z,5.05
2023-03-20T09:06:45.142Z,5.97
2023-03-20T09:09:15.779Z,6.35
2023-03-20T09:11:43.093Z,6.32
2023-03-20T09:14:10.807Z,6.40
2023-03-20T09:16:38.246Z,4.82
2023-03-20T09:19:06.637Z,5.70
2023-03-20T09:21:33.753Z,5.88
2023-03-20T09:24:00.922Z,5.93
2023-03-20T09:26:28.016Z,6.10
2023-03-20T09:28:55.201Z,6.55
2023-03-20T09:31:23.248Z,6.70
2023-03-20T09:33:50.511Z,6.53
2023-03-20T09:36:17.818Z,7.18
2023-03-20T09:38:45.142Z,6.20
2023-03-20T09:41:22.918Z,6.60
2023-03-20T09:44:27.447Z,5.30
2023-03-20T09:47:20.527Z,5.63
2023-03-20T09:49:48.075Z,4.32
2023-03-20T09:52:33.131Z,4.22
2023-03-20T09:55:08.882Z,4.37
2023-03-20T09:57:41.198Z,4.78
2023-03-20T10:00:17.501Z,4.22
2023-03-20T10:03:00.930Z,4.40
2023-03-20T10:05:42.800Z,3.42
2023-03-20T10:08:18.991Z,3.78
2023-03-20T10:11:05.192Z,3.70
2023-03-20T10:14:23.088Z,3.53
2023-03-20T10:17:37.671Z,3.28
2023-03-20T10:20:14.095Z,3.85
2023-03-20T10:23:25.077Z,3.88
2023-03-20T10:25:58.804Z,3.63
2023-03-20T10:28:39.142Z,4.05
2023-03-20T10:31:36.642Z,3.50
2023-03-20T10:34:27.697Z,3.90
2023-03-20T10:37:01.978Z,3.85
2023-03-20T10:39:53.139Z,4.35
2023-03-20T10:42:30.583Z,4.35
2023-03-20T10:45:13.158Z,4.50
2023-03-20T10:47:43.455Z,5.00
2023-03-20T10:50:45.635Z,5.13
2023-03-20T10:53:31.738Z,4.50
2023-03-20T10:56:17.067Z,4.13
2023-03-20T10:58:50.569Z,4.47
2023-03-20T11:01:20.763Z,4.07
2023-03-20T11:03:48.480Z,4.70
2023-03-20T11:06:22.862Z,3.70
2023-03-20T11:08:52.759Z,3.90
2023-03-20T11:11:34.183Z,3.80
2023-03-20T11:14:19.228Z,3.75
2023-03-20T11:16:55.136Z,3.17
2023-03-20T11:19:24.402Z,3.40
2023-03-20T11:21:58.326Z,3.40
2023-03-20T11:24:36.940Z,3.17
2023-03-20T11:27:14.719Z,2.75
2023-03-20T11:29:45.742Z,2.70
2023-03-20T11:32:32.255Z,2.80
2023-03-20T11:35:20.970Z,2.22
2023-03-20T11:37:52.490Z,2.63
2023-03-20T11:40:34.081Z,2.70
2023-03-20T11:43:01.145Z,2.65
2023-03-20T11:45:39.507Z,3.13
2023-03-20T11:48:33.540Z,3.55
2023-03-20T11:51:06.284Z,3.20
2023-03-20T11:53:41.822Z,2.80
2023-03-20T11:59:04.005Z,3.47
2023-03-20T12:01:47.057Z,3.13
2023-03-20T12:04:28.404Z,2.92
2023-03-20T12:07:20.236Z,2.88
2023-03-20T12:10:07.216Z,2.40
2023-03-20T12:12:54.158Z,3.25
2023-03-20T12:15:48.065Z,2.97
2023-03-20T12:18:47.328Z,3.55
2023-03-20T12:21:30.178Z,3.10
2023-03-20T12:24:22.876Z,3.20
2023-03-20T12:27:34.683Z,3.05
2023-03-20T12:30:33.087Z,3.00
2023-03-20T12:33:42.986Z,2.63
2023-03-20T12:36:18.534Z,3.03
2023-03-20T12:38:46.280Z,3.13
2023-03-20T12:41:27.015Z,2.72
2023-03-20T12:44:18.814Z,3.45
2023-03-20T12:47:16.560Z,3.10
2023-03-20T12:50:16.412Z,3.97
2023-03-20T12:53:29.229Z,3.80
2023-03-20T12:56:25.211Z,2.72
2023-03-20T12:59:15.739Z,2.25
2023-03-20T13:02:11.139Z,2.72
2023-03-20T13:04:50.242Z,2.77
2023-03-20T13:07:30.018Z,3.15
2023-03-20T13:10:05.381Z,2.75
2023-03-20T13:13:22.424Z,3.55
2023-03-20T13:16:31.746Z,3.08
2023-03-20T13:19:35.244Z,3.28
2023-03-20T13:22:28.308Z,2.65
2023-03-20T13:25:21.236Z,2.25
2023-03-20T13:28:35.346Z,2.90
2023-03-20T13:31:21.020Z,2.60
2023-03-20T13:34:02.415Z,2.65
2023-03-20T13:36:47.328Z,2.70
2023-03-20T13:39:25.948Z,2.97
2023-03-20T13:41:54.944Z,2.25
2023-03-20T13:44:25.769Z,2.88
2023-03-20T13:47:04.056Z,2.55
2023-03-20T13:50:01.047Z,3.03
2023-03-20T13:52:38.219Z,2.92
2023-03-20T13:55:24.713Z,2.83
2023-03-20T13:58:31.826Z,2.70
2023-03-20T14:01:10.320Z,2.92
2023-03-20T14:03:45.891Z,3.50
2023-03-20T14:09:00.959Z,2.28
2023-03-20T14:11:38.373Z,2.25
2023-03-20T14:14:41.593Z,2.05
2023-03-20T14:17:28.439Z,2.47
2023-03-20T14:19:57.131Z,2.40
2023-03-20T14:22:38.843Z,2.40
2023-03-20T14:25:20.940Z,2.67
2023-03-20T14:28:22.019Z,2.38
2023-03-20T14:30:53.232Z,2.80
2023-03-20T14:33:22.513Z,2.85
2023-03-20T14:36:20.766Z,3.00
2023-03-20T14:39:20.993Z,2.92
2023-03-20T14:42:37.776Z,3.17
2023-03-20T14:45:13.874Z,2.67
2023-03-20T14:48:07.063Z,2.90
2023-03-20T14:50:41.751Z,2.85
2023-03-20T14:53:14.186Z,3.50
2023-03-20T14:56:14.561Z,3.20
2023-03-20T14:58:57.968Z,3.08
2023-03-20T15:01:39.092Z,3.17
2023-03-20T15:04:27.366Z,2.85
2023-03-20T15:07:21.443Z,3.33
2023-03-20T15:09:53.909Z,3.25
2023-03-20T15:12:26.139Z,3.88
2023-03-20T15:15:08.157Z,2.80
2023-03-20T15:17:39.865Z,2.70
2023-03-20T15:20:23.424Z,2.65
2023-03-20T15:22:58.360Z,2.80
2023-03-20T15:25:41.042Z,2.47
2023-03-20T15:28:12.093Z,2.88
2023-03-20T15:30:41.049Z,2.70
2023-03-20T15:33:31.402Z,2.50
2023-03-20T15:35:59.034Z,2.38
2023-03-20T15:38:34.108Z,2.38
2023-03-20T15:41:08.538Z,2.72
2023-03-20T15:43:37.619Z,2.78
2023-03-20T15:46:17.849Z,2.53
2023-03-20T15:48:49.995Z,2.88
2023-03-20T15:51:18.691Z,2.10
2023-03-20T15:53:48.688Z,2.28
2023-03-20T15:56:19.902Z,2.08
2023-03-20T15:58:54.183Z,2.15
2023-03-20T16:01:25.764Z,2.20
2023-03-20T16:03:59.554Z,2.58
2023-03-20T16:06:27.460Z,2.42
2023-03-20T16:09:06.312Z,2.47
2023-03-20T16:11:40.432Z,1.95
2023-03-20T16:14:15.966Z,1.92
2023-03-20T16:16:47.064Z,1.92
2023-03-20T16:19:15.190Z,2.00
2023-03-20T16:21:54.390Z,2.30
2023-03-20T16:24:29.665Z,2.13
2023-03-20T16:26:58.094Z,2.15
2023-03-20T16:29:27.817Z,2.60
2023-03-20T16:32:21.047Z,2.70
2023-03-20T16:34:51.446Z,2.35
2023-03-20T16:37:30.183Z,2.55
2023-03-20T16:40:17.821Z,2.70
2023-03-20T16:42:45.921Z,2.78
2023-03-20T16:45:24.157Z,2.95
2023-03-20T16:47:51.492Z,3.08
2023-03-20T16:50:24.072Z,2.40
2023-03-20T16:52:58.037Z,2.58
2023-03-20T16:55:31.851Z,2.60
2023-03-20T16:58:06.927Z,2.90
2023-03-20T17:00:51.119Z,2.78
2023-03-20T17:03:48.196Z,2.50
2023-03-20T17:06:25.553Z,2.80
2023-03-20T17:08:56.565Z,2.67
2023-03-20T17:11:35.745Z,3.28
2023-03-20T17:14:04.443Z,3.17
2023-03-20T17:16:33.595Z,2.70
2023-03-20T17:19:04.478Z,3.08
2023-03-20T17:21:32.273Z,3.90
2023-03-20T17:24:00.300Z,3.10
2023-03-20T17:26:27.961Z,3.40
2023-03-20T17:28:56.561Z,3.35
2023-03-20T17:31:24.124Z,3.08
2023-03-20T17:33:52.692Z,3.33
2023-03-20T17:36:29.684Z,3.17
2023-03-20T17:39:00.824Z,3.20
2023-03-20T17:41:29.121Z,3.53
2023-03-20T17:43:56.845Z,4.38
2023-03-20T17:46:30.806Z,3.40
2023-03-20T17:49:15.249Z,3.65
2023-03-20T17:51:44.328Z,3.80
2023-03-20T17:54:11.918Z,4.13
2023-03-20T17:56:42.163Z,3.50
2023-03-20T17:59:15.822Z,3.70
2023-03-20T18:01:45.100Z,4.07
2023-03-20T18:04:12.453Z,4.07
2023-03-20T18:06:40.178Z,4.43
2023-03-20T18:09:12.281Z,4.35
2023-03-20T18:11:40.298Z,4.07
2023-03-20T18:14:08.735Z,4.15
2023-03-20T18:16:38.297Z,4.22
2023-03-20T18:19:11.453Z,4.50
2023-03-20T18:21:41.033Z,4.32
2023-03-20T18:24:08.498Z,4.57
2023-03-20T18:26:45.788Z,4.63
2023-03-20T18:29:16.503Z,4.97
2023-03-20T18:31:45.462Z,4.45
2023-03-20T18:34:13.301Z,5.03
2023-03-20T18:36:41.954Z,4.57
2023-03-20T18:39:31.974Z,4.90
2023-03-20T18:42:04.955Z,5.05
2023-03-20T18:44:34.307Z,5.13
2023-03-20T18:47:06.892Z,4.78
2023-03-20T18:49:39.192Z,5.43
2023-03-20T18:52:07.674Z,4.53
2023-03-20T18:54:40.148Z,5.13
2023-03-20T18:57:14.434Z,5.38
2023-03-20T18:59:42.963Z,4.78
2023-03-20T19:02:10.923Z,5.80
2023-03-20T19:04:39.382Z,4.90
2023-03-20T19:07:13.345Z,5.15
2023-03-20T19:09:42.016Z,5.63
2023-03-20T19:12:10.483Z,5.65
2023-03-20T19:14:38.920Z,5.72
2023-03-20T19:17:07.375Z,5.85
2023-03-20T19:19:36.302Z,6.13
2023-03-20T19:22:05.803Z,5.97
2023-03-20T19:24:34.073Z,6.75
2023-03-20T19:27:04.526Z,6.60
2023-03-20T19:29:33.177Z,6.47
2023-03-20T19:32:02.518Z,5.85
2023-03-20T19:35:23.117Z,6.35
2023-03-20T19:37:19.977Z,6.88
2023-03-20T19:39:49.793Z,6.47
2023-03-20T19:42:49.624Z,6.53
2023-03-20T19:45:08.012Z,6.32
2023-03-20T19:47:36.519Z,7.13
2023-03-20T19:50:06.144Z,6.53
2023-03-20T19:52:37.428Z,5.95
2023-03-20T19:55:09.415Z,6.78
2023-03-20T19:57:40.084Z,6.65
2023-03-20T20:00:54.967Z,6.13
2023-03-20T20:03:03.336Z,6.25
2023-03-20T20:05:37.488Z,5.78
2023-03-20T20:08:30.871Z,6.43
2023-03-20T20:10:56.740Z,6.60
2023-03-20T20:13:31.543Z,6.80
2023-03-20T20:16:00.884Z,5.93
2023-03-20T20:18:32.719Z,6.80
2023-03-20T20:23:49.175Z,7.05
2023-03-20T20:26:18.538Z,6.68
2023-03-20T20:28:49.109Z,7.00
2023-03-20T20:31:17.428Z,6.63
2023-03-20T20:34:02.049Z,6.43
2023-03-20T20:39:27.325Z,6.35
2023-03-20T20:41:57.457Z,7.10
2023-03-20T20:44:25.869Z,6.57
2023-03-20T20:46:53.511Z,6.80
2023-03-20T20:49:21.290Z,6.70
2023-03-20T20:51:50.648Z,6.97
2023-03-20T20:54:18.311Z,6.68
2023-03-20T20:56:46.355Z,6.25
2023-03-20T20:59:14.327Z,6.78
2023-03-20T21:01:42.321Z,6.30
2023-03-20T21:04:12.404Z,6.13
2023-03-20T21:07:09.294Z,6.32
2023-03-20T21:09:30.992Z,6.53
2023-03-20T21:11:59.025Z,6.40
2023-03-20T21:14:27.366Z,5.93
2023-03-20T21:17:01.400Z,5.85
2023-03-20T21:19:32.539Z,5.55
2023-03-20T21:22:00.523Z,5.50
2023-03-20T21:24:32.711Z,6.38
2023-03-20T21:27:11.022Z,5.95
2023-03-20T21:29:39.962Z,5.20
2023-03-20T21:32:09.546Z,5.32
2023-03-20T21:34:38.936Z,5.05
2023-03-20T21:38:04.009Z,5.70
2023-03-20T21:39:54.082Z,5.28
2023-03-20T21:42:21.470Z,5.07
2023-03-20T21:50:50.207Z,4.93
2023-03-20T21:54:07.850Z,5.00
2023-03-20T21:56:40.245Z,4.82
2023-03-20T21:59:27.038Z,4.60
2023-03-20T22:16:11.086Z,4.57
2023-03-20T22:30:12.051Z,4.95
2023-03-20T22:36:08.146Z,4.80
2023-03-20T22:44:34.121Z,4.80
2023-03-20T22:46:43.775Z,4.97
2023-03-20T22:49:01.246Z,5.03
2023-03-20T22:51:34.232Z,4.60
2023-03-20T22:54:03.041Z,4.90
2023-03-20T22:56:30.395Z,5.25
2023-03-20T22:58:57.628Z,5.35
2023-03-20T23:01:24.756Z,4.95
2023-03-20T23:03:51.846Z,4.60
2023-03-20T23:06:27.424Z,5.13
2023-03-20T23:08:58.328Z,5.75
2023-03-20T23:11:28.032Z,5.05
2023-03-20T23:13:56.394Z,5.55
2023-03-20T23:16:23.749Z,5.50
2023-03-20T23:18:50.902Z,4.97
2023-03-20T23:21:18.681Z,5.80
2023-03-20T23:23:45.878Z,5.95
2023-03-20T23:26:16.896Z,5.57
2023-03-20T23:28:47.550Z,6.30
2023-03-20T23:31:19.120Z,4.95
2023-03-20T23:33:56.436Z,5.85
2023-03-20T23:36:35.987Z,6.90
2023-03-20T23:39:09.692Z,6.57
2023-03-20T23:44:25.194Z,6.80
2023-03-20T23:46:52.398Z,6.50
2023-03-20T23:49:19.650Z,6.40
2023-03-20T23:51:46.988Z,7.18
2023-03-20T23:54:14.379Z,6.05
2023-03-20T23:56:41.709Z,7.35
2023-03-20T23:59:20.701Z,6.32
